sensor_id;sensor_type;location;lat;lon;timestamp;pressure;altitude;pressure_sealevel;temperature;humidity
71805;BME280;59654;52.216;5.616;2023-04-25T00:00:21;100833.97;;;4.52;99.43
71805;BME280;59654;52.216;5.616;2023-04-25T00:00:51;100833.06;;;4.53;99.36
71805;BME280;59654;52.216;5.616;2023-04-25T00:01:22;100832.16;;;4.55;99.22
71805;BME280;59654;52.216;5.616;2023-04-25T00:01:53;100825.97;;;4.56;98.97
71805;BME280;59654;52.216;5.616;2023-04-25T00:02:24;100825.06;;;4.59;98.92
71805;BME280;59654;52.216;5.616;2023-04-25T00:02:55;100827.69;;;4.60;98.92
71805;BME280;59654;52.216;5.616;2023-04-25T00:03:30;100826.81;;;4.61;98.44
71805;BME280;59654;52.216;5.616;2023-04-25T00:04:02;100826.81;;;4.61;98.50
71805;BME280;59654;52.216;5.616;2023-04-25T00:04:33;100827.59;;;4.65;98.50
71805;BME280;59654;52.216;5.616;2023-04-25T00:05:04;100824.97;;;4.65;97.96
71805;BME280;59654;52.216;5.616;2023-04-25T00:05:35;100833.75;;;4.65;97.95
71805;BME280;59654;52.216;5.616;2023-04-25T00:06:07;100830.25;;;4.65;97.85
71805;BME280;59654;52.216;5.616;2023-04-25T00:06:39;100828.47;;;4.65;97.70
71805;BME280;59654;52.216;5.616;2023-04-25T00:07:10;100835.53;;;4.65;97.62
71805;BME280;59654;52.216;5.616;2023-04-25T00:07:41;100837.25;;;4.67;98.06
71805;BME280;59654;52.216;5.616;2023-04-25T00:08:14;100827.59;;;4.66;97.78
71805;BME280;59654;52.216;5.616;2023-04-25T00:08:45;100828.44;;;4.68;97.95
71805;BME280;59654;52.216;5.616;2023-04-25T00:09:16;100827.56;;;4.68;97.62
71805;BME280;59654;52.216;5.616;2023-04-25T00:09:47;100837.28;;;4.66;97.89
71805;BME280;59654;52.216;5.616;2023-04-25T00:10:19;100834.66;;;4.64;97.68
71805;BME280;59654;52.216;5.616;2023-04-25T00:10:50;100835.53;;;4.63;97.09
71805;BME280;59654;52.216;5.616;2023-04-25T00:11:22;100832.97;;;4.62;97.09
71805;BME280;59654;52.216;5.616;2023-04-25T00:11:53;100835.63;;;4.60;97.09
71805;BME280;59654;52.216;5.616;2023-04-25T00:12:24;100834.72;;;4.61;97.35
71805;BME280;59654;52.216;5.616;2023-04-25T00:12:55;100840.03;;;4.60;97.08
71805;BME280;59654;52.216;5.616;2023-04-25T00:13:26;100841.78;;;4.61;97.03
71805;BME280;59654;52.216;5.616;2023-04-25T00:13:57;100835.63;;;4.60;96.84
71805;BME280;59654;52.216;5.616;2023-04-25T00:14:30;100841.78;;;4.59;97.15
71805;BME280;59654;52.216;5.616;2023-04-25T00:15:04;100830.38;;;4.57;96.99
71805;BME280;59654;52.216;5.616;2023-04-25T00:15:35;100827.72;;;4.57;96.71
71805;BME280;59654;52.216;5.616;2023-04-25T00:16:08;100832.16;;;4.55;96.37
71805;BME280;59654;52.216;5.616;2023-04-25T00:16:38;100834.78;;;4.55;96.82
71805;BME280;59654;52.216;5.616;2023-04-25T00:17:11;100834.78;;;4.55;96.85
71805;BME280;59654;52.216;5.616;2023-04-25T00:17:42;100831.28;;;4.55;96.75
71805;BME280;59654;52.216;5.616;2023-04-25T00:18:13;100836.56;;;4.55;96.92
71805;BME280;59654;52.216;5.616;2023-04-25T00:18:44;100840.09;;;4.54;97.11
71805;BME280;59654;52.216;5.616;2023-04-25T00:19:17;100838.31;;;4.54;96.91
71805;BME280;59654;52.216;5.616;2023-04-25T00:19:47;100834.78;;;4.55;97.04
71805;BME280;59654;52.216;5.616;2023-04-25T00:20:18;100844.50;;;4.53;97.13
71805;BME280;59654;52.216;5.616;2023-04-25T00:20:49;100846.25;;;4.54;97.28
71805;BME280;59654;52.216;5.616;2023-04-25T00:21:20;100845.38;;;4.54;97.33
71805;BME280;59654;52.216;5.616;2023-04-25T00:21:51;100843.59;;;4.54;97.47
71805;BME280;59654;52.216;5.616;2023-04-25T00:22:22;100840.09;;;4.54;96.89
71805;BME280;59654;52.216;5.616;2023-04-25T00:22:52;100845.38;;;4.54;97.12
71805;BME280;59654;52.216;5.616;2023-04-25T00:23:23;100848.91;;;4.53;96.78
71805;BME280;59654;52.216;5.616;2023-04-25T00:23:55;100847.16;;;4.52;96.85
71805;BME280;59654;52.216;5.616;2023-04-25T00:24:26;100841.88;;;4.52;96.92
71805;BME280;59654;52.216;5.616;2023-04-25T00:24:57;100841.00;;;4.51;96.66
71805;BME280;59654;52.216;5.616;2023-04-25T00:25:30;100840.16;;;4.49;96.40
71805;BME280;59654;52.216;5.616;2023-04-25T00:26:01;100842.81;;;4.48;96.20
71805;BME280;59654;52.216;5.616;2023-04-25T00:26:33;100842.81;;;4.48;95.89
71805;BME280;59654;52.216;5.616;2023-04-25T00:27:05;100841.97;;;4.46;95.63
71805;BME280;59654;52.216;5.616;2023-04-25T00:27:36;100843.69;;;4.48;95.93
71805;BME280;59654;52.216;5.616;2023-04-25T00:28:07;100844.56;;;4.47;96.40
71805;BME280;59654;52.216;5.616;2023-04-25T00:28:39;100844.56;;;4.47;96.27
71805;BME280;59654;52.216;5.616;2023-04-25T00:29:10;100845.50;;;4.46;96.37
71805;BME280;59654;52.216;5.616;2023-04-25T00:29:42;100849.00;;;4.47;96.38
71805;BME280;59654;52.216;5.616;2023-04-25T00:30:13;100847.22;;;4.47;96.78
71805;BME280;59654;52.216;5.616;2023-04-25T00:30:44;100846.38;;;4.45;96.70
71805;BME280;59654;52.216;5.616;2023-04-25T00:31:16;100848.16;;;4.45;96.44
71805;BME280;59654;52.216;5.616;2023-04-25T00:31:46;100847.28;;;4.44;96.61
71805;BME280;59654;52.216;5.616;2023-04-25T00:32:17;100849.91;;;4.44;96.34
71805;BME280;59654;52.216;5.616;2023-04-25T00:32:49;100849.03;;;4.44;96.44
71805;BME280;59654;52.216;5.616;2023-04-25T00:33:20;100844.63;;;4.44;96.43
71805;BME280;59654;52.216;5.616;2023-04-25T00:33:51;100852.56;;;4.44;96.45
71805;BME280;59654;52.216;5.616;2023-04-25T00:34:23;100849.03;;;4.44;96.55
71805;BME280;59654;52.216;5.616;2023-04-25T00:34:54;100851.69;;;4.42;96.65
71805;BME280;59654;52.216;5.616;2023-04-25T00:35:26;100847.31;;;4.41;96.63
71805;BME280;59654;52.216;5.616;2023-04-25T00:35:57;100851.72;;;4.41;96.33
71805;BME280;59654;52.216;5.616;2023-04-25T00:36:28;100849.97;;;4.40;95.83
71805;BME280;59654;52.216;5.616;2023-04-25T00:36:59;100849.09;;;4.37;96.24
71805;BME280;59654;52.216;5.616;2023-04-25T00:37:32;100854.38;;;4.37;96.24
71805;BME280;59654;52.216;5.616;2023-04-25T00:38:03;100846.47;;;4.36;95.97
71805;BME280;59654;52.216;5.616;2023-04-25T00:38:34;100849.13;;;4.34;96.13
71805;BME280;59654;52.216;5.616;2023-04-25T00:39:05;100854.44;;;4.33;95.75
71805;BME280;59654;52.216;5.616;2023-04-25T00:39:37;100850.94;;;4.31;96.18
71805;BME280;59654;52.216;5.616;2023-04-25T00:40:08;100849.25;;;4.27;96.08
71805;BME280;59654;52.216;5.616;2023-04-25T00:40:39;100852.78;;;4.27;96.23
71805;BME280;59654;52.216;5.616;2023-04-25T00:41:11;100851.03;;;4.26;96.69
71805;BME280;59654;52.216;5.616;2023-04-25T00:41:43;100850.16;;;4.26;96.64
71805;BME280;59654;52.216;5.616;2023-04-25T00:42:15;100845.75;;;4.25;96.80
71805;BME280;59654;52.216;5.616;2023-04-25T00:42:47;100845.75;;;4.25;97.25
71805;BME280;59654;52.216;5.616;2023-04-25T00:43:18;100842.22;;;4.26;96.96
71805;BME280;59654;52.216;5.616;2023-04-25T00:43:51;100847.50;;;4.27;96.77
71805;BME280;59654;52.216;5.616;2023-04-25T00:44:24;100846.63;;;4.27;96.96
71805;BME280;59654;52.216;5.616;2023-04-25T00:44:58;100851.00;;;4.29;96.94
71805;BME280;59654;52.216;5.616;2023-04-25T00:45:30;100854.50;;;4.28;96.71
71805;BME280;59654;52.216;5.616;2023-04-25T00:46:01;100843.97;;;4.28;97.20
71805;BME280;59654;52.216;5.616;2023-04-25T00:46:32;100845.72;;;4.29;97.14
71805;BME280;59654;52.216;5.616;2023-04-25T00:47:04;100851.00;;;4.28;96.98
71805;BME280;59654;52.216;5.616;2023-04-25T00:47:35;100851.88;;;4.30;97.33
71805;BME280;59654;52.216;5.616;2023-04-25T00:48:06;100846.59;;;4.30;97.11
71805;BME280;59654;52.216;5.616;2023-04-25T00:48:37;100852.75;;;4.30;97.20
71805;BME280;59654;52.216;5.616;2023-04-25T00:49:08;100854.44;;;4.31;97.05
71805;BME280;59654;52.216;5.616;2023-04-25T00:49:39;100853.56;;;4.31;97.05
71805;BME280;59654;52.216;5.616;2023-04-25T00:50:10;100855.31;;;4.32;97.15
71805;BME280;59654;52.216;5.616;2023-04-25T00:50:44;100850.94;;;4.31;97.27
71805;BME280;59654;52.216;5.616;2023-04-25T00:51:24;100853.63;;;4.29;97.40
71805;BME280;59654;52.216;5.616;2023-04-25T00:51:57;100853.63;;;4.29;97.56
71805;BME280;59654;52.216;5.616;2023-04-25T00:52:28;100847.47;;;4.30;97.08
71805;BME280;59654;52.216;5.616;2023-04-25T00:52:59;100850.09;;;4.30;97.39
71805;BME280;59654;52.216;5.616;2023-04-25T00:53:31;100854.50;;;4.30;97.30
71805;BME280;59654;52.216;5.616;2023-04-25T00:54:02;100855.31;;;4.32;96.92
71805;BME280;59654;52.216;5.616;2023-04-25T00:54:34;100853.56;;;4.31;97.40
71805;BME280;59654;52.216;5.616;2023-04-25T00:55:05;100860.59;;;4.32;97.40
71805;BME280;59654;52.216;5.616;2023-04-25T00:55:36;100865.00;;;4.33;97.06
71805;BME280;59654;52.216;5.616;2023-04-25T00:56:07;100857.06;;;4.33;96.84
71805;BME280;59654;52.216;5.616;2023-04-25T00:56:39;100858.81;;;4.34;97.22
71805;BME280;59654;52.216;5.616;2023-04-25T00:57:11;100857.97;;;4.32;96.83
71805;BME280;59654;52.216;5.616;2023-04-25T00:57:42;100860.59;;;4.33;96.85
71805;BME280;59654;52.216;5.616;2023-04-25T00:58:13;100855.31;;;4.33;97.24
71805;BME280;59654;52.216;5.616;2023-04-25T00:58:45;100857.06;;;4.34;96.99
71805;BME280;59654;52.216;5.616;2023-04-25T00:59:16;100859.69;;;4.34;97.05
71805;BME280;59654;52.216;5.616;2023-04-25T00:59:50;100857.06;;;4.34;96.72
71805;BME280;59654;52.216;5.616;2023-04-25T01:00:22;100853.53;;;4.34;96.81
71805;BME280;59654;52.216;5.616;2023-04-25T01:00:55;100853.53;;;4.35;97.03
71805;BME280;59654;52.216;5.616;2023-04-25T01:01:28;100852.66;;;4.35;96.83
71805;BME280;59654;52.216;5.616;2023-04-25T01:01:59;100854.41;;;4.34;96.84
71805;BME280;59654;52.216;5.616;2023-04-25T01:02:32;100857.03;;;4.36;96.79
71805;BME280;59654;52.216;5.616;2023-04-25T01:03:03;100858.81;;;4.34;96.37
71805;BME280;59654;52.216;5.616;2023-04-25T01:03:38;100857.94;;;4.35;96.86
71805;BME280;59654;52.216;5.616;2023-04-25T01:04:13;100861.47;;;4.34;96.86
71805;BME280;59654;52.216;5.616;2023-04-25T01:04:44;100852.66;;;4.33;96.86
71805;BME280;59654;52.216;5.616;2023-04-25T01:05:15;100842.13;;;4.33;96.31
71805;BME280;59654;52.216;5.616;2023-04-25T01:05:47;100852.66;;;4.33;96.28
71805;BME280;59654;52.216;5.616;2023-04-25T01:06:18;100850.06;;;4.32;96.07
71805;BME280;59654;52.216;5.616;2023-04-25T01:06:49;100844.78;;;4.32;95.31
71805;BME280;59654;52.216;5.616;2023-04-25T01:07:20;100850.06;;;4.32;94.53
71805;BME280;59654;52.216;5.616;2023-04-25T01:07:51;100849.25;;;4.28;94.74
71805;BME280;59654;52.216;5.616;2023-04-25T01:08:24;100847.50;;;4.27;94.42
71805;BME280;59654;52.216;5.616;2023-04-25T01:08:59;100852.78;;;4.27;94.82
71805;BME280;59654;52.216;5.616;2023-04-25T01:09:30;100852.78;;;4.26;95.30
71805;BME280;59654;52.216;5.616;2023-04-25T01:10:03;100851.91;;;4.25;95.23
71805;BME280;59654;52.216;5.616;2023-04-25T01:10:36;100844.00;;;4.24;95.39
71805;BME280;59654;52.216;5.616;2023-04-25T01:11:07;100857.19;;;4.24;95.43
71805;BME280;59654;52.216;5.616;2023-04-25T01:11:38;100846.66;;;4.22;95.13
71805;BME280;59654;52.216;5.616;2023-04-25T01:12:11;100855.47;;;4.21;95.56
71805;BME280;59654;52.216;5.616;2023-04-25T01:12:42;100845.78;;;4.22;95.66
71805;BME280;59654;52.216;5.616;2023-04-25T01:13:13;100846.69;;;4.21;95.36
71805;BME280;59654;52.216;5.616;2023-04-25T01:13:44;100847.56;;;4.21;95.57
71805;BME280;59654;52.216;5.616;2023-04-25T01:14:14;100851.97;;;4.19;95.61
71805;BME280;59654;52.216;5.616;2023-04-25T01:14:46;100861.63;;;4.20;95.97
71805;BME280;59654;52.216;5.616;2023-04-25T01:15:17;100854.59;;;4.19;95.79
71805;BME280;59654;52.216;5.616;2023-04-25T01:15:48;100859.00;;;4.19;96.47
71805;BME280;59654;52.216;5.616;2023-04-25T01:16:19;100855.50;;;4.18;96.43
71805;BME280;59654;52.216;5.616;2023-04-25T01:16:50;100857.25;;;4.18;96.05
71805;BME280;59654;52.216;5.616;2023-04-25T01:17:23;100857.25;;;4.18;96.00
71805;BME280;59654;52.216;5.616;2023-04-25T01:17:54;100853.75;;;4.17;95.87
71805;BME280;59654;52.216;5.616;2023-04-25T01:18:25;100858.16;;;4.15;95.16
71805;BME280;59654;52.216;5.616;2023-04-25T01:18:57;100852.00;;;4.15;95.42
71805;BME280;59654;52.216;5.616;2023-04-25T01:19:28;100860.84;;;4.14;95.38
71805;BME280;59654;52.216;5.616;2023-04-25T01:20:02;100864.38;;;4.13;95.33
71805;BME280;59654;52.216;5.616;2023-04-25T01:20:38;100861.75;;;4.13;95.32
71805;BME280;59654;52.216;5.616;2023-04-25T01:21:11;100860.00;;;4.10;94.37
71805;BME280;59654;52.216;5.616;2023-04-25T01:21:43;100853.00;;;4.08;94.23
71805;BME280;59654;52.216;5.616;2023-04-25T01:22:16;100854.78;;;4.06;94.64
71805;BME280;59654;52.216;5.616;2023-04-25T01:22:47;100859.19;;;4.05;94.75
71805;BME280;59654;52.216;5.616;2023-04-25T01:23:20;100866.19;;;4.06;94.67
71805;BME280;59654;52.216;5.616;2023-04-25T01:23:52;100867.09;;;4.05;94.64
71805;BME280;59654;52.216;5.616;2023-04-25T01:24:24;100863.59;;;4.03;95.10
71805;BME280;59654;52.216;5.616;2023-04-25T01:24:57;100867.09;;;4.03;95.03
71805;BME280;59654;52.216;5.616;2023-04-25T01:25:29;100868.88;;;4.03;95.06
71805;BME280;59654;52.216;5.616;2023-04-25T01:26:01;100867.13;;;4.02;95.26
71805;BME280;59654;52.216;5.616;2023-04-25T01:26:34;100867.13;;;4.00;94.66
71805;BME280;59654;52.216;5.616;2023-04-25T01:27:06;100873.31;;;3.99;94.98
71805;BME280;59654;52.216;5.616;2023-04-25T01:27:37;100864.50;;;3.99;94.83
71805;BME280;59654;52.216;5.616;2023-04-25T01:28:08;100868.97;;;3.97;94.90
71805;BME280;59654;52.216;5.616;2023-04-25T01:28:40;100870.72;;;3.96;95.02
71805;BME280;59654;52.216;5.616;2023-04-25T01:29:12;100866.34;;;3.95;95.00
71805;BME280;59654;52.216;5.616;2023-04-25T01:29:43;100863.72;;;3.94;95.05
71805;BME280;59654;52.216;5.616;2023-04-25T01:30:14;100869.84;;;3.94;95.77
71805;BME280;59654;52.216;5.616;2023-04-25T01:30:46;100873.38;;;3.93;95.09
71805;BME280;59654;52.216;5.616;2023-04-25T01:31:18;100869.88;;;3.91;95.03
71805;BME280;59654;52.216;5.616;2023-04-25T01:31:51;100874.31;;;3.89;95.58
71805;BME280;59654;52.216;5.616;2023-04-25T01:32:23;100874.31;;;3.89;95.68
71805;BME280;59654;52.216;5.616;2023-04-25T01:32:58;100877.81;;;3.88;95.67
71805;BME280;59654;52.216;5.616;2023-04-25T01:33:29;100877.81;;;3.88;95.42
71805;BME280;59654;52.216;5.616;2023-04-25T01:34:00;100876.06;;;3.87;95.16
71805;BME280;59654;52.216;5.616;2023-04-25T01:34:33;100877.84;;;3.87;95.46
71805;BME280;59654;52.216;5.616;2023-04-25T01:35:06;100882.25;;;3.86;95.00
71805;BME280;59654;52.216;5.616;2023-04-25T01:35:39;100876.09;;;3.86;95.39
71805;BME280;59654;52.216;5.616;2023-04-25T01:36:10;100873.47;;;3.84;95.82
71805;BME280;59654;52.216;5.616;2023-04-25T01:36:42;100881.38;;;3.86;95.11
71805;BME280;59654;52.216;5.616;2023-04-25T01:37:13;100882.25;;;3.83;94.80
71805;BME280;59654;52.216;5.616;2023-04-25T01:37:45;100877.88;;;3.82;94.41
71805;BME280;59654;52.216;5.616;2023-04-25T01:38:16;100877.91;;;3.81;94.60
71805;BME280;59654;52.216;5.616;2023-04-25T01:38:47;100879.69;;;3.80;94.01
71805;BME280;59654;52.216;5.616;2023-04-25T01:39:19;100881.47;;;3.78;94.63
71805;BME280;59654;52.216;5.616;2023-04-25T01:39:50;100876.19;;;3.78;94.30
71805;BME280;59654;52.216;5.616;2023-04-25T01:40:22;100884.97;;;3.79;94.18
71805;BME280;59654;52.216;5.616;2023-04-25T01:40:55;100880.59;;;3.78;93.82
71805;BME280;59654;52.216;5.616;2023-04-25T01:41:27;100884.13;;;3.75;94.40
71805;BME280;59654;52.216;5.616;2023-04-25T01:41:59;100879.72;;;3.76;94.32
71805;BME280;59654;52.216;5.616;2023-04-25T01:42:31;100872.72;;;3.73;94.57
71805;BME280;59654;52.216;5.616;2023-04-25T01:43:02;100881.50;;;3.74;94.25
71805;BME280;59654;52.216;5.616;2023-04-25T01:43:34;100876.22;;;3.74;94.12
71805;BME280;59654;52.216;5.616;2023-04-25T01:44:06;100877.09;;;3.73;93.75
71805;BME280;59654;52.216;5.616;2023-04-25T01:44:36;100877.13;;;3.71;94.01
71805;BME280;59654;52.216;5.616;2023-04-25T01:45:09;100879.75;;;3.70;94.25
71805;BME280;59654;52.216;5.616;2023-04-25T01:45:42;100872.75;;;3.68;93.48
71805;BME280;59654;52.216;5.616;2023-04-25T01:46:14;100871.00;;;3.66;93.97
71805;BME280;59654;52.216;5.616;2023-04-25T01:46:45;100880.72;;;3.65;94.61
71805;BME280;59654;52.216;5.616;2023-04-25T01:47:16;100878.09;;;3.62;94.48
71805;BME280;59654;52.216;5.616;2023-04-25T01:47:47;100873.72;;;3.61;94.49
71805;BME280;59654;52.216;5.616;2023-04-25T01:48:20;100876.34;;;3.60;95.23
71805;BME280;59654;52.216;5.616;2023-04-25T01:48:51;100876.34;;;3.60;95.04
71805;BME280;59654;52.216;5.616;2023-04-25T01:49:23;100886.03;;;3.59;95.54
71805;BME280;59654;52.216;5.616;2023-04-25T01:49:54;100883.38;;;3.61;95.27
71805;BME280;59654;52.216;5.616;2023-04-25T01:50:27;100879.00;;;3.60;95.54
71805;BME280;59654;52.216;5.616;2023-04-25T01:50:58;100880.75;;;3.61;95.50
71805;BME280;59654;52.216;5.616;2023-04-25T01:51:29;100883.38;;;3.61;95.82
71805;BME280;59654;52.216;5.616;2023-04-25T01:52:01;100885.13;;;3.60;95.89
71805;BME280;59654;52.216;5.616;2023-04-25T01:52:32;100883.38;;;3.59;95.08
71805;BME280;59654;52.216;5.616;2023-04-25T01:53:04;100883.41;;;3.58;95.29
71805;BME280;59654;52.216;5.616;2023-04-25T01:53:35;100883.41;;;3.58;95.34
71805;BME280;59654;52.216;5.616;2023-04-25T01:54:08;100892.19;;;3.57;95.45
71805;BME280;59654;52.216;5.616;2023-04-25T01:54:41;100882.53;;;3.56;95.36
71805;BME280;59654;52.216;5.616;2023-04-25T01:55:14;100888.69;;;3.53;95.25
71805;BME280;59654;52.216;5.616;2023-04-25T01:55:57;100890.47;;;3.53;95.12
71805;BME280;59654;52.216;5.616;2023-04-25T01:56:32;100883.44;;;3.52;94.98
71805;BME280;59654;52.216;5.616;2023-04-25T01:57:03;100890.47;;;3.51;95.20
71805;BME280;59654;52.216;5.616;2023-04-25T01:57:36;100886.13;;;3.49;95.31
71805;BME280;59654;52.216;5.616;2023-04-25T01:58:08;100887.91;;;3.47;95.07
71805;BME280;59654;52.216;5.616;2023-04-25T01:59:00;100887.91;;;3.44;94.72
71805;BME280;59654;52.216;5.616;2023-04-25T01:59:59;100887.94;;;3.41;95.53
71805;BME280;59654;52.216;5.616;2023-04-25T02:00:43;100895.88;;;3.38;94.95
71805;BME280;59654;52.216;5.616;2023-04-25T02:01:15;100890.59;;;3.38;94.30
71805;BME280;59654;52.216;5.616;2023-04-25T02:01:51;100885.34;;;3.35;94.79
71805;BME280;59654;52.216;5.616;2023-04-25T02:02:29;100888.03;;;3.33;94.67
71805;BME280;59654;52.216;5.616;2023-04-25T02:03:00;100886.28;;;3.32;94.54
71805;BME280;59654;52.216;5.616;2023-04-25T02:03:36;100887.16;;;3.29;94.04
71805;BME280;59654;52.216;5.616;2023-04-25T02:04:10;100887.16;;;3.28;94.03
71805;BME280;59654;52.216;5.616;2023-04-25T02:04:44;100892.44;;;3.26;94.71
71805;BME280;59654;52.216;5.616;2023-04-25T02:05:15;100888.06;;;3.27;94.52
71805;BME280;59654;52.216;5.616;2023-04-25T02:05:47;100894.22;;;3.26;94.10
71805;BME280;59654;52.216;5.616;2023-04-25T02:06:18;100891.56;;;3.26;94.40
71805;BME280;59654;52.216;5.616;2023-04-25T02:06:51;100893.34;;;3.25;94.92
71805;BME280;59654;52.216;5.616;2023-04-25T02:07:22;100896.84;;;3.24;94.51
71805;BME280;59654;52.216;5.616;2023-04-25T02:07:56;100894.22;;;3.23;94.85
71805;BME280;59654;52.216;5.616;2023-04-25T02:08:29;100896.00;;;3.21;94.42
71805;BME280;59654;52.216;5.616;2023-04-25T02:09:00;100894.25;;;3.20;94.99
71805;BME280;59654;52.216;5.616;2023-04-25T02:09:31;100896.00;;;3.19;95.39
71805;BME280;59654;52.216;5.616;2023-04-25T02:10:04;100897.75;;;3.19;94.77
71805;BME280;59654;52.216;5.616;2023-04-25T02:10:39;100893.38;;;3.18;94.21
71805;BME280;59654;52.216;5.616;2023-04-25T02:11:22;100899.56;;;3.15;93.91
71805;BME280;59654;52.216;5.616;2023-04-25T02:12:09;100895.19;;;3.13;94.12
71805;BME280;59654;52.216;5.616;2023-04-25T02:13:12;100900.47;;;3.10;94.09
71805;BME280;59654;52.216;5.616;2023-04-25T02:14:00;100901.38;;;3.07;94.08
71805;BME280;59654;52.216;5.616;2023-04-25T02:14:43;100899.59;;;3.08;94.74
71805;BME280;59654;52.216;5.616;2023-04-25T02:15:20;100902.25;;;3.06;94.24
71805;BME280;59654;52.216;5.616;2023-04-25T02:15:55;100903.13;;;3.05;94.82
71805;BME280;59654;52.216;5.616;2023-04-25T02:16:26;100898.75;;;3.04;94.52
71805;BME280;59654;52.216;5.616;2023-04-25T02:16:57;100902.25;;;3.03;95.12
71805;BME280;59654;52.216;5.616;2023-04-25T02:17:28;100904.03;;;3.01;94.85
71805;BME280;59654;52.216;5.616;2023-04-25T02:17:59;100898.75;;;3.01;95.73
71805;BME280;59654;52.216;5.616;2023-04-25T02:18:30;100907.53;;;3.02;95.73
71805;BME280;59654;52.216;5.616;2023-04-25T02:19:01;100897.88;;;3.04;95.89
71805;BME280;59654;52.216;5.616;2023-04-25T02:19:34;100899.63;;;3.05;95.77
71805;BME280;59654;52.216;5.616;2023-04-25T02:20:06;100899.63;;;3.03;95.58
71805;BME280;59654;52.216;5.616;2023-04-25T02:20:37;100900.50;;;3.04;96.10
71805;BME280;59654;52.216;5.616;2023-04-25T02:21:08;100901.38;;;3.06;96.12
71805;BME280;59654;52.216;5.616;2023-04-25T02:21:40;100897.84;;;3.05;96.38
71805;BME280;59654;52.216;5.616;2023-04-25T02:22:10;100892.59;;;3.07;95.97
71805;BME280;59654;52.216;5.616;2023-04-25T02:22:41;100897.84;;;3.07;96.04
71805;BME280;59654;52.216;5.616;2023-04-25T02:23:12;100893.47;;;3.07;96.33
71805;BME280;59654;52.216;5.616;2023-04-25T02:23:45;100896.09;;;3.07;95.85
71805;BME280;59654;52.216;5.616;2023-04-25T02:24:19;100898.72;;;3.07;96.20
71805;BME280;59654;52.216;5.616;2023-04-25T02:24:50;100896.97;;;3.08;95.68
71805;BME280;59654;52.216;5.616;2023-04-25T02:25:21;100896.97;;;3.06;95.65
71805;BME280;59654;52.216;5.616;2023-04-25T02:25:52;100900.50;;;3.05;95.89
71805;BME280;59654;52.216;5.616;2023-04-25T02:26:25;100899.63;;;3.05;95.47
71805;BME280;59654;52.216;5.616;2023-04-25T02:26:57;100901.38;;;3.06;95.44
71805;BME280;59654;52.216;5.616;2023-04-25T02:27:28;100904.88;;;3.05;95.58
71805;BME280;59654;52.216;5.616;2023-04-25T02:28:00;100903.13;;;3.05;95.50
71805;BME280;59654;52.216;5.616;2023-04-25T02:28:31;100902.25;;;3.03;94.91
71805;BME280;59654;52.216;5.616;2023-04-25T02:29:02;100897.00;;;3.02;94.98
71805;BME280;59654;52.216;5.616;2023-04-25T02:29:33;100903.19;;;3.01;95.36
71805;BME280;59654;52.216;5.616;2023-04-25T02:30:05;100911.09;;;3.01;95.07
71805;BME280;59654;52.216;5.616;2023-04-25T02:30:37;100901.44;;;2.96;95.11
71805;BME280;59654;52.216;5.616;2023-04-25T02:31:09;100909.34;;;2.98;95.04
71805;BME280;59654;52.216;5.616;2023-04-25T02:31:40;100905.84;;;2.96;95.06
71805;BME280;59654;52.216;5.616;2023-04-25T02:32:11;100904.09;;;2.93;94.75
71805;BME280;59654;52.216;5.616;2023-04-25T02:32:42;100902.34;;;2.94;94.95
71805;BME280;59654;52.216;5.616;2023-04-25T02:33:13;100904.97;;;2.94;95.53
71805;BME280;59654;52.216;5.616;2023-04-25T02:33:44;100905.84;;;2.93;95.07
71805;BME280;59654;52.216;5.616;2023-04-25T02:34:15;100908.50;;;2.91;94.79
71805;BME280;59654;52.216;5.616;2023-04-25T02:34:46;100906.75;;;2.90;95.25
71805;BME280;59654;52.216;5.616;2023-04-25T02:35:17;100910.25;;;2.91;94.70
71805;BME280;59654;52.216;5.616;2023-04-25T02:35:47;100915.50;;;2.88;94.93
71805;BME280;59654;52.216;5.616;2023-04-25T02:36:18;100903.22;;;2.87;94.92
71805;BME280;59654;52.216;5.616;2023-04-25T02:36:49;100907.59;;;2.88;95.12
71805;BME280;59654;52.216;5.616;2023-04-25T02:37:23;100907.59;;;2.86;95.08
71805;BME280;59654;52.216;5.616;2023-04-25T02:37:54;100901.50;;;2.84;94.94
71805;BME280;59654;52.216;5.616;2023-04-25T02:38:25;100910.22;;;2.85;95.26
71805;BME280;59654;52.216;5.616;2023-04-25T02:38:56;100907.63;;;2.83;95.49
71805;BME280;59654;52.216;5.616;2023-04-25T02:39:27;100905.88;;;2.82;95.40
71805;BME280;59654;52.216;5.616;2023-04-25T02:39:57;100908.53;;;2.82;95.41
71805;BME280;59654;52.216;5.616;2023-04-25T02:40:28;100919.06;;;2.82;95.57
71805;BME280;59654;52.216;5.616;2023-04-25T02:40:59;100905.03;;;2.80;95.25
71805;BME280;59654;52.216;5.616;2023-04-25T02:41:30;100914.66;;;2.81;95.13
71805;BME280;59654;52.216;5.616;2023-04-25T02:42:01;100910.28;;;2.79;95.14
71805;BME280;59654;52.216;5.616;2023-04-25T02:42:34;100912.03;;;2.80;95.40
71805;BME280;59654;52.216;5.616;2023-04-25T02:43:05;100912.03;;;2.78;95.44
71805;BME280;59654;52.216;5.616;2023-04-25T02:43:35;100912.94;;;2.77;95.56
71805;BME280;59654;52.216;5.616;2023-04-25T02:44:06;100909.41;;;2.77;95.32
71805;BME280;59654;52.216;5.616;2023-04-25T02:44:37;100910.28;;;2.76;95.81
71805;BME280;59654;52.216;5.616;2023-04-25T02:45:09;100910.28;;;2.76;95.28
71805;BME280;59654;52.216;5.616;2023-04-25T02:45:40;100910.28;;;2.76;95.54
71805;BME280;59654;52.216;5.616;2023-04-25T02:46:11;100922.59;;;2.77;96.03
71805;BME280;59654;52.216;5.616;2023-04-25T02:46:43;100905.03;;;2.77;95.58
71805;BME280;59654;52.216;5.616;2023-04-25T02:47:14;100914.69;;;2.77;95.15
71805;BME280;59654;52.216;5.616;2023-04-25T02:47:47;100914.69;;;2.77;95.43
71805;BME280;59654;52.216;5.616;2023-04-25T02:48:18;100915.56;;;2.76;95.24
71805;BME280;59654;52.216;5.616;2023-04-25T02:48:49;100906.78;;;2.75;95.33
71805;BME280;59654;52.216;5.616;2023-04-25T02:49:19;100908.53;;;2.75;94.96
71805;BME280;59654;52.216;5.616;2023-04-25T02:49:50;100911.19;;;2.75;94.70
71805;BME280;59654;52.216;5.616;2023-04-25T02:50:21;100909.44;;;2.74;94.61
71805;BME280;59654;52.216;5.616;2023-04-25T02:50:52;100911.19;;;2.72;95.11